Time;durP1;ratioP1;P1;durP2;ratioP2;P2;SDS_P1;SDS_P2;PMS_P1;PMS_P2;Temp;Humidity;BMP_temperature;BMP_pressure;BME280_temperature;BME280_humidity;BME280_pressure;Samples;Min_cycle;Max_cycle;Signal;HPM_P1;HPM_P2
2021/01/14 00:10:38;;;;;;;15.43;10.90;;;;;;;18.84;32.74;99549.06;31220192;28;20362;-63
2021/01/14 00:25:38;;;;;;;16.13;11.15;;;;;;;18.68;33.05;99540.25;31219394;28;20038;-63
2021/01/14 00:40:39;;;;;;;16.03;11.37;;;;;;;18.57;33.56;99557.13;31235836;28;20030;-63
2021/01/14 00:55:40;;;;;;;14.77;11.00;;;;;;;18.43;33.45;99569.88;31217854;28;20272;-63
2021/01/14 01:10:41;;;;;;;12.67;10.57;;;;;;;18.33;33.81;99584.97;31229420;28;20033;-63
2021/01/14 01:25:42;;;;;;;13.63;10.43;;;;;;;18.27;34.00;99595.25;31257005;28;20300;-63
2021/01/14 01:40:44;;;;;;;13.50;10.43;;;;;;;18.13;34.39;99634.28;31237727;28;20761;-63
2021/01/14 01:55:45;;;;;;;15.30;10.50;;;;;;;18.08;34.57;99668.09;31235922;28;20359;-62
2021/01/14 02:10:59;;;;;;;14.73;10.40;;;;;;;18.00;34.73;99742.50;31218035;28;20033;-62
2021/01/14 02:26:20;;;;;;;12.77;10.02;;;;;;;17.95;34.75;99810.44;31215059;28;20041;-63
2021/01/14 02:41:21;;;;;;;14.43;9.93;;;;;;;17.87;34.96;99851.59;31230830;28;20033;-63
2021/01/14 02:56:22;;;;;;;14.13;9.52;;;;;;;17.76;35.20;99908.59;31229105;28;20373;-63
2021/01/14 03:11:29;;;;;;;11.97;9.30;;;;;;;17.77;35.38;99967.22;31227380;28;20041;-62
2021/01/14 03:26:30;;;;;;;12.32;8.88;;;;;;;17.71;35.24;100007.25;31240666;28;20288;-63
2021/01/14 03:41:31;;;;;;;12.38;8.13;;;;;;;17.62;35.66;100055.38;31185697;28;20041;-63
2021/01/14 03:56:37;;;;;;;10.90;7.95;;;;;;;17.63;35.48;100096.44;31118185;28;20491;-62
2021/01/14 04:11:38;;;;;;;11.65;8.27;;;;;;;17.54;35.78;100146.22;31099299;28;20451;-63
2021/01/14 04:26:39;;;;;;;9.60;7.22;;;;;;;17.54;35.76;100190.06;31114609;28;20523;-63
2021/01/14 04:41:49;;;;;;;9.55;6.57;;;;;;;17.52;35.80;100242.75;31178216;28;20083;-63
2021/01/14 04:56:53;;;;;;;10.68;7.07;;;;;;;17.50;35.87;100278.00;31226997;28;20029;-63
2021/01/14 05:11:57;;;;;;;7.90;6.30;;;;;;;17.41;36.11;100315.56;31258588;28;20104;-63
2021/01/14 05:26:58;;;;;;;9.20;6.82;;;;;;;17.35;36.37;100358.97;31224359;28;20050;-63
2021/01/14 05:42:07;;;;;;;8.60;5.93;;;;;;;17.34;36.12;100400.16;31238783;28;20110;-64
2021/01/14 05:57:08;;;;;;;8.00;5.68;;;;;;;17.32;36.23;100436.25;31236501;28;20371;-63
2021/01/14 06:12:11;;;;;;;7.63;5.70;;;;;;;17.31;36.23;100465.25;31218956;28;20041;-63
2021/01/14 06:27:12;;;;;;;8.52;5.43;;;;;;;17.31;36.13;100508.09;31220400;28;20054;-63
2021/01/14 06:42:17;;;;;;;7.68;5.07;;;;;;;17.22;36.27;100558.75;31234635;28;20484;-63
2021/01/14 06:57:17;;;;;;;7.45;5.05;;;;;;;17.20;36.21;100596.63;31213812;28;20442;-63
2021/01/14 07:12:18;;;;;;;8.07;4.88;;;;;;;17.00;37.60;100656.81;31195843;28;20499;-63
2021/01/14 07:27:19;;;;;;;8.98;5.00;;;;;;;16.81;38.60;100685.44;31226601;28;20041;-64
2021/01/14 07:42:22;;;;;;;9.23;5.00;;;;;;;16.89;32.35;100727.69;31201703;28;20395;-64
2021/01/14 07:57:27;;;;;;;8.07;4.60;;;;;;;12.29;37.50;100770.25;31210672;28;20384;-63
2021/01/14 08:12:32;;;;;;;7.10;3.90;;;;;;;13.87;44.34;100797.41;31229384;28;20095;-65
2021/01/14 08:27:36;;;;;;;7.93;3.70;;;;;;;15.47;41.09;100816.56;31223818;28;20104;-66
2021/01/14 08:42:47;;;;;;;7.90;3.20;;;;;;;16.46;39.89;100844.53;31202522;28;20037;-65
2021/01/14 08:57:51;;;;;;;5.65;3.00;;;;;;;17.09;39.01;100874.06;31217407;28;20037;-65
2021/01/14 09:12:52;;;;;;;4.57;2.55;;;;;;;17.50;38.38;100896.38;31206333;28;20041;-65
2021/01/14 09:27:53;;;;;;;5.70;2.80;;;;;;;17.73;37.94;100931.41;31217600;28;20041;-65
2021/01/14 09:42:54;;;;;;;4.43;2.70;;;;;;;17.95;34.84;100954.25;31227487;28;20300;-65
2021/01/14 09:57:55;;;;;;;4.23;2.53;;;;;;;18.29;33.79;100961.31;31238538;28;20310;-64
2021/01/14 10:12:58;;;;;;;6.27;3.93;;;;;;;18.71;33.11;100977.28;31262039;28;20371;-65
2021/01/14 10:28:10;;;;;;;6.75;3.40;;;;;;;19.03;32.43;100995.78;31251768;28;20301;-65
2021/01/14 10:43:12;;;;;;;5.25;3.08;;;;;;;19.25;31.75;101024.69;31255680;28;20040;-65
2021/01/14 10:58:20;;;;;;;5.38;3.10;;;;;;;19.40;31.43;101024.38;31249018;28;20025;-65
2021/01/14 11:13:35;;;;;;;4.40;3.08;;;;;;;19.55;31.33;101017.03;31246448;28;20033;-64
2021/01/14 11:28:41;;;;;;;5.95;3.58;;;;;;;19.65;31.04;101015.28;31229239;28;20038;-65
2021/01/14 11:43:42;;;;;;;6.70;4.03;;;;;;;19.76;30.64;101033.69;31230950;28;20567;-65
2021/01/14 11:58:43;;;;;;;7.05;4.07;;;;;;;19.80;30.89;101034.28;31239718;28;20022;-65
2021/01/14 12:13:44;;;;;;;5.15;3.40;;;;;;;19.29;30.99;101053.41;31232324;28;20037;-65
2021/01/14 12:28:45;;;;;;;5.67;3.23;;;;;;;19.04;31.99;101063.34;31238858;28;20044;-66
2021/01/14 12:43:46;;;;;;;5.65;3.70;;;;;;;19.10;32.35;101062.00;31236093;28;20304;-64
2021/01/14 12:58:47;;;;;;;6.60;4.63;;;;;;;19.29;31.73;101064.81;31242854;28;20029;-65
2021/01/14 13:13:48;;;;;;;6.47;4.20;;;;;;;19.20;32.41;101081.38;31243622;28;20704;-65
2021/01/14 13:28:52;;;;;;;6.65;4.18;;;;;;;19.23;32.65;101086.38;31241139;28;20061;-65
2021/01/14 13:43:53;;;;;;;7.03;4.47;;;;;;;19.24;32.80;101088.91;31258081;28;20041;-65
2021/01/14 13:58:54;;;;;;;7.00;4.83;;;;;;;19.25;33.05;101102.91;31262414;28;20031;-66
2021/01/14 14:13:55;;;;;;;7.13;4.90;;;;;;;19.28;32.99;101123.75;31239520;28;20769;-66
2021/01/14 14:28:56;;;;;;;6.20;4.53;;;;;;;19.31;33.11;101128.78;31205550;28;20296;-65
2021/01/14 14:43:58;;;;;;;6.72;4.68;;;;;;;19.36;33.33;101152.97;31196976;28;20064;-66
2021/01/14 14:58:58;;;;;;;7.13;4.97;;;;;;;19.40;33.26;101169.38;31188943;28;20030;-66
2021/01/14 15:13:59;;;;;;;6.77;4.87;;;;;;;19.42;33.19;101175.34;31212131;28;20148;-66
2021/01/14 15:29:00;;;;;;;6.97;5.10;;;;;;;19.45;33.36;101193.56;31183585;28;20296;-66
2021/01/14 15:44:02;;;;;;;7.57;5.33;;;;;;;19.51;33.26;101211.53;31235264;28;20323;-65
2021/01/14 15:59:25;;;;;;;8.43;5.95;;;;;;;19.64;32.51;101229.84;31192625;28;20296;-65
2021/01/14 16:14:27;;;;;;;8.85;6.00;;;;;;;19.71;32.43;101231.06;31187074;28;20501;-65
2021/01/14 16:29:28;;;;;;;8.45;6.15;;;;;;;19.74;32.60;101251.91;31202831;28;20042;-64
2021/01/14 16:44:30;;;;;;;10.02;7.15;;;;;;;19.77;32.67;101256.09;31182334;28;20049;-64
2021/01/14 16:59:31;;;;;;;11.13;7.63;;;;;;;19.77;31.93;101264.00;31160820;28;20080;-65
2021/01/14 17:14:32;;;;;;;11.87;8.43;;;;;;;19.81;32.25;101268.94;31198309;28;20037;-65
2021/01/14 17:29:33;;;;;;;11.20;7.77;;;;;;;19.84;32.42;101260.75;31206587;28;20813;-66
2021/01/14 17:44:34;;;;;;;10.57;8.03;;;;;;;19.87;32.26;101264.94;31196165;28;20300;-64
2021/01/14 17:59:35;;;;;;;10.30;7.20;;;;;;;19.79;27.86;101276.13;31236820;28;20637;-65
2021/01/14 18:14:36;;;;;;;9.77;7.22;;;;;;;14.69;33.66;101292.78;31234274;28;20291;-64
2021/01/14 18:29:37;;;;;;;9.35;6.68;;;;;;;16.49;37.15;101305.28;31239427;28;20045;-65
2021/01/14 18:44:38;;;;;;;8.30;6.45;;;;;;;18.09;34.32;101299.59;31244157;28;20042;-64
2021/01/14 18:59:39;;;;;;;11.73;7.50;;;;;;;19.03;32.99;101315.41;31255454;28;20038;-66
2021/01/14 19:14:40;;;;;;;11.13;9.37;;;;;;;19.54;31.96;101326.44;31172742;28;20307;-65
2021/01/14 19:29:41;;;;;;;17.57;12.40;;;;;;;19.72;31.78;101321.56;31223704;28;20294;-66
2021/01/14 19:44:42;;;;;;;16.55;12.00;;;;;;;19.77;31.96;101322.88;31224478;28;20299;-63
2021/01/14 19:59:43;;;;;;;13.65;11.23;;;;;;;19.82;31.55;101343.63;31214854;28;20032;-63
2021/01/14 20:14:44;;;;;;;13.93;10.27;;;;;;;19.81;33.06;101352.47;31196070;28;20044;-64
2021/01/14 20:29:45;;;;;;;14.13;10.03;;;;;;;19.86;33.41;101356.44;31211844;28;20299;-64
2021/01/14 20:44:46;;;;;;;13.40;10.40;;;;;;;20.05;33.16;101362.91;31220314;28;20298;-66
2021/01/14 20:59:47;;;;;;;12.63;10.10;;;;;;;20.20;33.11;101369.59;31233078;28;20824;-64
2021/01/14 21:14:48;;;;;;;26.50;16.70;;;;;;;20.25;33.42;101366.59;31247757;28;20291;-65
2021/01/14 21:29:49;;;;;;;25.40;15.33;;;;;;;20.17;33.43;101376.91;31261251;28;20808;-65
2021/01/14 21:44:50;;;;;;;24.73;15.63;;;;;;;20.05;33.97;101363.72;31256313;28;20378;-64
2021/01/14 21:59:51;;;;;;;22.03;14.33;;;;;;;20.04;33.93;101377.03;31247659;28;20319;-63
2021/01/14 22:14:52;;;;;;;20.33;13.47;;;;;;;20.23;33.50;101379.06;31208006;28;20300;-65
2021/01/14 22:29:53;;;;;;;16.50;11.87;;;;;;;20.20;30.78;101387.19;31268331;28;20299;-64
2021/01/14 22:44:54;;;;;;;11.20;8.77;;;;;;;19.95;30.42;101394.47;31264577;28;20295;-66
2021/01/14 22:59:55;;;;;;;12.53;7.73;;;;;;;19.42;31.08;101399.44;31289188;28;20027;-65
2021/01/14 23:14:56;;;;;;;11.30;8.70;;;;;;;19.30;31.84;101406.47;31269558;28;20787;-67
2021/01/14 23:29:57;;;;;;;11.10;7.78;;;;;;;19.16;32.47;101394.34;31260995;28;20345;-64
2021/01/14 23:44:58;;;;;;;10.98;8.20;;;;;;;19.02;32.91;101390.13;31288761;28;20037;-64
2021/01/14 23:59:59;;;;;;;10.07;8.00;;;;;;;18.90;33.34;101387.56;31241975;28;20022;-64
